sensor_id;sensor_type;location;lat;lon;timestamp;temperature;humidity
51815;DHT22;37874;53.158;6.766;2023-06-05T00:01:59;25.20;45.90
51815;DHT22;37874;53.158;6.766;2023-06-05T00:04:27;25.20;45.90
51815;DHT22;37874;53.158;6.766;2023-06-05T00:06:54;25.60;46.20
51815;DHT22;37874;53.158;6.766;2023-06-05T00:09:20;25.20;46.00
51815;DHT22;37874;53.158;6.766;2023-06-05T00:11:46;25.30;46.00
51815;DHT22;37874;53.158;6.766;2023-06-05T00:14:11;25.20;46.00
51815;DHT22;37874;53.158;6.766;2023-06-05T00:16:37;25.20;46.00
51815;DHT22;37874;53.158;6.766;2023-06-05T00:19:03;25.20;46.00
51815;DHT22;37874;53.158;6.766;2023-06-05T00:21:29;25.10;45.90
51815;DHT22;37874;53.158;6.766;2023-06-05T00:23:54;25.20;46.00
51815;DHT22;37874;53.158;6.766;2023-06-05T00:26:20;25.10;46.00
51815;DHT22;37874;53.158;6.766;2023-06-05T00:28:46;25.10;46.00
51815;DHT22;37874;53.158;6.766;2023-06-05T00:31:12;25.20;46.10
51815;DHT22;37874;53.158;6.766;2023-06-05T00:33:44;25.10;46.00
51815;DHT22;37874;53.158;6.766;2023-06-05T00:36:10;25.10;46.00
51815;DHT22;37874;53.158;6.766;2023-06-05T00:38:36;25.10;46.10
51815;DHT22;37874;53.158;6.766;2023-06-05T00:41:02;25.10;46.10
51815;DHT22;37874;53.158;6.766;2023-06-05T00:43:27;25.00;46.00
51815;DHT22;37874;53.158;6.766;2023-06-05T00:45:58;25.00;46.00
51815;DHT22;37874;53.158;6.766;2023-06-05T00:48:25;25.10;46.10
51815;DHT22;37874;53.158;6.766;2023-06-05T00:50:51;25.10;46.10
51815;DHT22;37874;53.158;6.766;2023-06-05T00:53:17;25.10;46.10
51815;DHT22;37874;53.158;6.766;2023-06-05T00:55:43;25.00;46.10
51815;DHT22;37874;53.158;6.766;2023-06-05T00:58:09;25.00;46.10
51815;DHT22;37874;53.158;6.766;2023-06-05T01:00:35;25.00;46.10
51815;DHT22;37874;53.158;6.766;2023-06-05T01:03:02;25.00;46.00
51815;DHT22;37874;53.158;6.766;2023-06-05T01:05:28;25.00;46.20
51815;DHT22;37874;53.158;6.766;2023-06-05T01:07:54;24.90;46.10
51815;DHT22;37874;53.158;6.766;2023-06-05T01:10:20;24.90;46.10
51815;DHT22;37874;53.158;6.766;2023-06-05T01:13:05;24.90;46.20
51815;DHT22;37874;53.158;6.766;2023-06-05T01:15:32;24.90;46.20
51815;DHT22;37874;53.158;6.766;2023-06-05T01:17:59;24.90;46.30
51815;DHT22;37874;53.158;6.766;2023-06-05T01:20:33;24.90;46.30
51815;DHT22;37874;53.158;6.766;2023-06-05T01:22:59;24.90;46.30
51815;DHT22;37874;53.158;6.766;2023-06-05T01:25:24;24.90;46.30
51815;DHT22;37874;53.158;6.766;2023-06-05T01:28:24;24.90;46.30
51815;DHT22;37874;53.158;6.766;2023-06-05T01:30:44;24.90;46.30
51815;DHT22;37874;53.158;6.766;2023-06-05T01:33:17;24.90;46.30
51815;DHT22;37874;53.158;6.766;2023-06-05T01:35:46;24.80;46.30
51815;DHT22;37874;53.158;6.766;2023-06-05T01:38:17;24.80;46.20
51815;DHT22;37874;53.158;6.766;2023-06-05T01:40:44;24.80;46.20
51815;DHT22;37874;53.158;6.766;2023-06-05T01:43:11;24.80;46.20
51815;DHT22;37874;53.158;6.766;2023-06-05T01:45:38;24.80;46.30
51815;DHT22;37874;53.158;6.766;2023-06-05T01:48:09;24.80;46.30
51815;DHT22;37874;53.158;6.766;2023-06-05T01:50:36;24.80;46.30
51815;DHT22;37874;53.158;6.766;2023-06-05T01:53:06;24.80;46.30
51815;DHT22;37874;53.158;6.766;2023-06-05T01:55:32;24.80;46.30
51815;DHT22;37874;53.158;6.766;2023-06-05T01:57:58;24.80;46.30
51815;DHT22;37874;53.158;6.766;2023-06-05T02:00:23;24.80;46.30
51815;DHT22;37874;53.158;6.766;2023-06-05T02:02:50;24.80;46.40
51815;DHT22;37874;53.158;6.766;2023-06-05T02:05:17;24.70;46.30
51815;DHT22;37874;53.158;6.766;2023-06-05T02:07:46;24.70;46.30
51815;DHT22;37874;53.158;6.766;2023-06-05T02:10:19;24.80;46.40
51815;DHT22;37874;53.158;6.766;2023-06-05T02:12:45;24.70;46.30
51815;DHT22;37874;53.158;6.766;2023-06-05T02:15:11;24.70;46.40
51815;DHT22;37874;53.158;6.766;2023-06-05T02:17:40;24.70;46.40
51815;DHT22;37874;53.158;6.766;2023-06-05T02:20:16;24.70;46.40
51815;DHT22;37874;53.158;6.766;2023-06-05T02:22:42;24.70;46.40
51815;DHT22;37874;53.158;6.766;2023-06-05T02:25:10;24.70;46.30
51815;DHT22;37874;53.158;6.766;2023-06-05T02:27:38;24.70;46.40
51815;DHT22;37874;53.158;6.766;2023-06-05T02:30:05;24.70;46.40
51815;DHT22;37874;53.158;6.766;2023-06-05T02:32:30;24.30;46.20
51815;DHT22;37874;53.158;6.766;2023-06-05T02:34:57;24.70;46.40
51815;DHT22;37874;53.158;6.766;2023-06-05T02:37:26;24.70;46.40
51815;DHT22;37874;53.158;6.766;2023-06-05T02:39:53;24.70;46.40
51815;DHT22;37874;53.158;6.766;2023-06-05T02:42:18;24.70;46.40
51815;DHT22;37874;53.158;6.766;2023-06-05T02:44:46;24.50;46.30
51815;DHT22;37874;53.158;6.766;2023-06-05T02:47:12;24.70;46.40
51815;DHT22;37874;53.158;6.766;2023-06-05T02:49:37;24.60;46.40
51815;DHT22;37874;53.158;6.766;2023-06-05T02:52:04;24.60;46.50
51815;DHT22;37874;53.158;6.766;2023-06-05T02:54:30;24.60;46.50
51815;DHT22;37874;53.158;6.766;2023-06-05T02:56:55;24.60;46.50
51815;DHT22;37874;53.158;6.766;2023-06-05T02:59:25;24.60;46.50
51815;DHT22;37874;53.158;6.766;2023-06-05T03:01:53;24.60;46.50
51815;DHT22;37874;53.158;6.766;2023-06-05T03:04:19;24.60;46.60
51815;DHT22;37874;53.158;6.766;2023-06-05T03:06:50;24.60;46.50
51815;DHT22;37874;53.158;6.766;2023-06-05T03:09:16;24.50;46.50
51815;DHT22;37874;53.158;6.766;2023-06-05T03:11:43;24.50;46.50
51815;DHT22;37874;53.158;6.766;2023-06-05T03:14:09;24.50;46.50
51815;DHT22;37874;53.158;6.766;2023-06-05T03:16:34;24.50;46.50
51815;DHT22;37874;53.158;6.766;2023-06-05T03:19:07;24.50;46.50
51815;DHT22;37874;53.158;6.766;2023-06-05T03:21:35;24.50;46.50
51815;DHT22;37874;53.158;6.766;2023-06-05T03:24:01;24.50;46.60
51815;DHT22;37874;53.158;6.766;2023-06-05T03:26:27;24.50;46.60
51815;DHT22;37874;53.158;6.766;2023-06-05T03:28:52;24.50;46.60
51815;DHT22;37874;53.158;6.766;2023-06-05T03:31:18;24.10;46.30
51815;DHT22;37874;53.158;6.766;2023-06-05T03:33:44;24.40;46.50
51815;DHT22;37874;53.158;6.766;2023-06-05T03:36:10;24.50;46.60
51815;DHT22;37874;53.158;6.766;2023-06-05T03:38:35;24.40;46.50
51815;DHT22;37874;53.158;6.766;2023-06-05T03:41:01;24.40;46.50
51815;DHT22;37874;53.158;6.766;2023-06-05T03:43:27;24.40;46.50
51815;DHT22;37874;53.158;6.766;2023-06-05T03:45:53;24.50;46.60
51815;DHT22;37874;53.158;6.766;2023-06-05T03:48:18;24.40;47.10
51815;DHT22;37874;53.158;6.766;2023-06-05T03:50:47;24.40;46.50
51815;DHT22;37874;53.158;6.766;2023-06-05T03:53:13;24.40;46.50
51815;DHT22;37874;53.158;6.766;2023-06-05T03:55:39;24.40;46.50
51815;DHT22;37874;53.158;6.766;2023-06-05T03:58:14;24.40;46.50
51815;DHT22;37874;53.158;6.766;2023-06-05T04:00:44;24.40;46.50
51815;DHT22;37874;53.158;6.766;2023-06-05T04:03:10;24.40;46.50
51815;DHT22;37874;53.158;6.766;2023-06-05T04:05:37;24.40;46.50
51815;DHT22;37874;53.158;6.766;2023-06-05T04:08:04;24.40;46.50
51815;DHT22;37874;53.158;6.766;2023-06-05T04:10:30;24.30;46.40
51815;DHT22;37874;53.158;6.766;2023-06-05T04:12:56;24.40;46.50
51815;DHT22;37874;53.158;6.766;2023-06-05T04:15:23;24.40;46.50
51815;DHT22;37874;53.158;6.766;2023-06-05T04:17:49;24.40;46.40
51815;DHT22;37874;53.158;6.766;2023-06-05T04:20:14;24.40;46.40
51815;DHT22;37874;53.158;6.766;2023-06-05T04:22:41;24.40;46.40
51815;DHT22;37874;53.158;6.766;2023-06-05T04:25:07;24.40;46.30
51815;DHT22;37874;53.158;6.766;2023-06-05T04:27:37;24.40;46.30
51815;DHT22;37874;53.158;6.766;2023-06-05T04:30:05;24.40;46.30
51815;DHT22;37874;53.158;6.766;2023-06-05T04:32:31;24.40;46.20
51815;DHT22;37874;53.158;6.766;2023-06-05T04:34:59;24.40;46.20
51815;DHT22;37874;53.158;6.766;2023-06-05T04:37:26;24.40;46.10
51815;DHT22;37874;53.158;6.766;2023-06-05T04:39:51;24.40;46.10
51815;DHT22;37874;53.158;6.766;2023-06-05T04:42:17;24.40;46.10
51815;DHT22;37874;53.158;6.766;2023-06-05T04:44:43;24.40;46.10
51815;DHT22;37874;53.158;6.766;2023-06-05T04:47:09;24.40;46.10
51815;DHT22;37874;53.158;6.766;2023-06-05T04:49:35;24.40;46.00
51815;DHT22;37874;53.158;6.766;2023-06-05T04:52:01;24.50;46.00
51815;DHT22;37874;53.158;6.766;2023-06-05T04:54:26;24.50;45.90
51815;DHT22;37874;53.158;6.766;2023-06-05T04:56:52;24.60;46.00
51815;DHT22;37874;53.158;6.766;2023-06-05T04:59:18;24.50;45.80
51815;DHT22;37874;53.158;6.766;2023-06-05T05:01:44;24.50;45.80
51815;DHT22;37874;53.158;6.766;2023-06-05T05:04:10;24.50;45.80
51815;DHT22;37874;53.158;6.766;2023-06-05T05:06:37;24.40;45.70
51815;DHT22;37874;53.158;6.766;2023-06-05T05:09:04;24.50;45.70
51815;DHT22;37874;53.158;6.766;2023-06-05T05:11:29;24.40;45.60
51815;DHT22;37874;53.158;6.766;2023-06-05T05:13:55;24.40;45.60
51815;DHT22;37874;53.158;6.766;2023-06-05T05:16:20;24.60;45.60
51815;DHT22;37874;53.158;6.766;2023-06-05T05:18:47;24.60;45.50
51815;DHT22;37874;53.158;6.766;2023-06-05T05:21:12;24.50;45.50
51815;DHT22;37874;53.158;6.766;2023-06-05T05:23:38;24.60;45.50
51815;DHT22;37874;53.158;6.766;2023-06-05T05:26:03;24.60;45.40
51815;DHT22;37874;53.158;6.766;2023-06-05T05:28:30;24.60;45.40
51815;DHT22;37874;53.158;6.766;2023-06-05T05:30:55;24.50;45.30
51815;DHT22;37874;53.158;6.766;2023-06-05T05:33:23;24.60;45.60
51815;DHT22;37874;53.158;6.766;2023-06-05T05:35:48;24.60;45.20
51815;DHT22;37874;53.158;6.766;2023-06-05T05:38:14;24.50;45.10
51815;DHT22;37874;53.158;6.766;2023-06-05T05:40:40;24.70;45.10
51815;DHT22;37874;53.158;6.766;2023-06-05T05:43:05;24.60;44.90
51815;DHT22;37874;53.158;6.766;2023-06-05T05:45:31;24.60;44.90
51815;DHT22;37874;53.158;6.766;2023-06-05T05:47:57;24.70;44.80
51815;DHT22;37874;53.158;6.766;2023-06-05T05:50:22;24.60;44.70
51815;DHT22;37874;53.158;6.766;2023-06-05T05:52:48;24.80;44.80
51815;DHT22;37874;53.158;6.766;2023-06-05T05:55:14;24.70;44.60
51815;DHT22;37874;53.158;6.766;2023-06-05T05:57:40;24.70;44.60
51815;DHT22;37874;53.158;6.766;2023-06-05T06:00:06;24.70;44.60
51815;DHT22;37874;53.158;6.766;2023-06-05T06:02:38;24.70;45.20
51815;DHT22;37874;53.158;6.766;2023-06-05T06:05:05;24.80;44.60
51815;DHT22;37874;53.158;6.766;2023-06-05T06:07:31;24.80;44.60
51815;DHT22;37874;53.158;6.766;2023-06-05T06:09:57;24.70;45.20
51815;DHT22;37874;53.158;6.766;2023-06-05T06:12:24;24.70;44.90
51815;DHT22;37874;53.158;6.766;2023-06-05T06:14:50;24.80;44.80
51815;DHT22;37874;53.158;6.766;2023-06-05T06:17:16;24.80;44.70
51815;DHT22;37874;53.158;6.766;2023-06-05T06:19:42;24.70;44.60
51815;DHT22;37874;53.158;6.766;2023-06-05T06:22:07;24.80;44.50
51815;DHT22;37874;53.158;6.766;2023-06-05T06:24:41;24.80;44.60
51815;DHT22;37874;53.158;6.766;2023-06-05T06:27:10;24.80;44.60
51815;DHT22;37874;53.158;6.766;2023-06-05T06:29:47;24.80;44.60
51815;DHT22;37874;53.158;6.766;2023-06-05T06:32:14;24.70;44.00
51815;DHT22;37874;53.158;6.766;2023-06-05T06:34:40;24.50;43.50
51815;DHT22;37874;53.158;6.766;2023-06-05T06:37:06;24.20;43.30
51815;DHT22;37874;53.158;6.766;2023-06-05T06:39:32;24.10;43.60
51815;DHT22;37874;53.158;6.766;2023-06-05T06:41:58;23.80;43.60
51815;DHT22;37874;53.158;6.766;2023-06-05T06:44:23;23.70;44.20
51815;DHT22;37874;53.158;6.766;2023-06-05T06:46:49;23.30;43.10
51815;DHT22;37874;53.158;6.766;2023-06-05T06:49:14;22.80;43.30
51815;DHT22;37874;53.158;6.766;2023-06-05T06:51:40;22.50;44.00
51815;DHT22;37874;53.158;6.766;2023-06-05T06:54:06;22.20;44.40
51815;DHT22;37874;53.158;6.766;2023-06-05T06:56:31;22.00;44.80
51815;DHT22;37874;53.158;6.766;2023-06-05T06:58:57;21.70;45.40
51815;DHT22;37874;53.158;6.766;2023-06-05T07:01:22;21.50;46.00
51815;DHT22;37874;53.158;6.766;2023-06-05T07:03:50;21.60;46.00
51815;DHT22;37874;53.158;6.766;2023-06-05T07:06:15;21.60;46.30
51815;DHT22;37874;53.158;6.766;2023-06-05T07:08:41;22.00;46.30
51815;DHT22;37874;53.158;6.766;2023-06-05T07:11:07;21.80;46.70
51815;DHT22;37874;53.158;6.766;2023-06-05T07:13:32;21.80;46.20
51815;DHT22;37874;53.158;6.766;2023-06-05T07:15:58;21.90;45.70
51815;DHT22;37874;53.158;6.766;2023-06-05T07:18:23;22.00;45.50
51815;DHT22;37874;53.158;6.766;2023-06-05T07:20:49;21.90;45.20
51815;DHT22;37874;53.158;6.766;2023-06-05T07:23:15;21.90;45.90
51815;DHT22;37874;53.158;6.766;2023-06-05T07:25:43;22.00;45.80
51815;DHT22;37874;53.158;6.766;2023-06-05T07:28:09;22.00;45.70
51815;DHT22;37874;53.158;6.766;2023-06-05T07:30:37;22.00;45.80
51815;DHT22;37874;53.158;6.766;2023-06-05T07:33:03;22.00;45.70
51815;DHT22;37874;53.158;6.766;2023-06-05T07:35:29;22.00;44.30
51815;DHT22;37874;53.158;6.766;2023-06-05T07:37:55;22.00;44.50
51815;DHT22;37874;53.158;6.766;2023-06-05T07:40:20;21.90;45.40
51815;DHT22;37874;53.158;6.766;2023-06-05T07:42:46;21.90;45.10
51815;DHT22;37874;53.158;6.766;2023-06-05T07:45:11;21.90;45.30
51815;DHT22;37874;53.158;6.766;2023-06-05T07:47:37;21.80;45.70
51815;DHT22;37874;53.158;6.766;2023-06-05T07:50:03;21.70;45.20
51815;DHT22;37874;53.158;6.766;2023-06-05T07:52:31;21.80;44.60
51815;DHT22;37874;53.158;6.766;2023-06-05T07:54:57;21.80;44.10
51815;DHT22;37874;53.158;6.766;2023-06-05T07:57:23;21.80;44.20
51815;DHT22;37874;53.158;6.766;2023-06-05T07:59:53;21.70;44.30
51815;DHT22;37874;53.158;6.766;2023-06-05T08:02:20;21.70;44.90
51815;DHT22;37874;53.158;6.766;2023-06-05T08:04:46;21.60;45.30
51815;DHT22;37874;53.158;6.766;2023-06-05T08:07:12;21.60;44.90
51815;DHT22;37874;53.158;6.766;2023-06-05T08:09:38;21.60;44.50
51815;DHT22;37874;53.158;6.766;2023-06-05T08:12:05;21.60;45.40
51815;DHT22;37874;53.158;6.766;2023-06-05T08:14:31;21.60;44.00
51815;DHT22;37874;53.158;6.766;2023-06-05T08:16:57;21.60;45.00
51815;DHT22;37874;53.158;6.766;2023-06-05T08:19:22;21.60;45.40
51815;DHT22;37874;53.158;6.766;2023-06-05T08:21:52;21.60;45.30
51815;DHT22;37874;53.158;6.766;2023-06-05T08:24:22;21.20;45.50
51815;DHT22;37874;53.158;6.766;2023-06-05T08:26:48;21.70;45.60
51815;DHT22;37874;53.158;6.766;2023-06-05T08:29:14;21.70;45.70
51815;DHT22;37874;53.158;6.766;2023-06-05T08:31:39;21.70;45.70
51815;DHT22;37874;53.158;6.766;2023-06-05T08:34:05;21.70;45.60
51815;DHT22;37874;53.158;6.766;2023-06-05T08:36:31;21.70;45.30
51815;DHT22;37874;53.158;6.766;2023-06-05T08:38:58;21.70;45.00
51815;DHT22;37874;53.158;6.766;2023-06-05T08:41:24;21.70;45.10
51815;DHT22;37874;53.158;6.766;2023-06-05T08:43:50;21.70;45.50
51815;DHT22;37874;53.158;6.766;2023-06-05T08:46:16;21.70;45.30
51815;DHT22;37874;53.158;6.766;2023-06-05T08:48:45;21.80;45.40
51815;DHT22;37874;53.158;6.766;2023-06-05T08:51:12;21.80;44.60
51815;DHT22;37874;53.158;6.766;2023-06-05T08:53:40;21.90;44.90
51815;DHT22;37874;53.158;6.766;2023-06-05T08:56:07;21.80;45.10
51815;DHT22;37874;53.158;6.766;2023-06-05T08:58:36;21.70;44.80
51815;DHT22;37874;53.158;6.766;2023-06-05T09:01:02;21.80;45.10
51815;DHT22;37874;53.158;6.766;2023-06-05T09:03:28;21.80;44.90
51815;DHT22;37874;53.158;6.766;2023-06-05T09:05:54;21.70;44.50
51815;DHT22;37874;53.158;6.766;2023-06-05T09:08:33;21.80;44.50
51815;DHT22;37874;53.158;6.766;2023-06-05T09:11:21;21.80;44.00
51815;DHT22;37874;53.158;6.766;2023-06-05T09:13:47;21.80;44.20
51815;DHT22;37874;53.158;6.766;2023-06-05T09:16:13;21.90;44.60
51815;DHT22;37874;53.158;6.766;2023-06-05T09:18:55;21.90;44.50
51815;DHT22;37874;53.158;6.766;2023-06-05T09:21:23;21.90;44.60
51815;DHT22;37874;53.158;6.766;2023-06-05T09:27:05;22.00;44.00
51815;DHT22;37874;53.158;6.766;2023-06-05T09:29:38;22.00;44.00
51815;DHT22;37874;53.158;6.766;2023-06-05T09:32:05;22.00;44.70
51815;DHT22;37874;53.158;6.766;2023-06-05T09:34:36;22.10;44.90
51815;DHT22;37874;53.158;6.766;2023-06-05T09:37:05;22.20;44.60
51815;DHT22;37874;53.158;6.766;2023-06-05T09:39:33;22.20;44.50
51815;DHT22;37874;53.158;6.766;2023-06-05T09:41:59;22.40;44.50
51815;DHT22;37874;53.158;6.766;2023-06-05T09:44:26;22.50;44.40
51815;DHT22;37874;53.158;6.766;2023-06-05T09:49:25;22.40;43.70
51815;DHT22;37874;53.158;6.766;2023-06-05T09:51:51;22.50;43.40
51815;DHT22;37874;53.158;6.766;2023-06-05T09:54:16;22.50;43.70
51815;DHT22;37874;53.158;6.766;2023-06-05T09:56:48;22.50;43.40
51815;DHT22;37874;53.158;6.766;2023-06-05T09:59:21;22.60;43.50
51815;DHT22;37874;53.158;6.766;2023-06-05T10:01:49;22.70;43.50
51815;DHT22;37874;53.158;6.766;2023-06-05T10:04:18;22.70;43.40
51815;DHT22;37874;53.158;6.766;2023-06-05T10:06:44;22.90;43.60
51815;DHT22;37874;53.158;6.766;2023-06-05T10:09:11;22.90;42.90
51815;DHT22;37874;53.158;6.766;2023-06-05T10:11:39;23.00;43.00
51815;DHT22;37874;53.158;6.766;2023-06-05T10:14:09;22.90;43.00
51815;DHT22;37874;53.158;6.766;2023-06-05T10:16:35;23.00;42.70
51815;DHT22;37874;53.158;6.766;2023-06-05T10:19:02;23.10;42.90
51815;DHT22;37874;53.158;6.766;2023-06-05T10:21:29;23.10;42.60
51815;DHT22;37874;53.158;6.766;2023-06-05T10:23:59;23.20;42.30
51815;DHT22;37874;53.158;6.766;2023-06-05T10:40:46;23.30;41.70
51815;DHT22;37874;53.158;6.766;2023-06-05T10:43:26;23.40;42.20
51815;DHT22;37874;53.158;6.766;2023-06-05T10:45:56;23.50;41.70
51815;DHT22;37874;53.158;6.766;2023-06-05T10:51:52;23.60;41.50
51815;DHT22;37874;53.158;6.766;2023-06-05T10:56:54;23.60;41.70
51815;DHT22;37874;53.158;6.766;2023-06-05T10:59:37;23.60;41.60
51815;DHT22;37874;53.158;6.766;2023-06-05T11:07:27;23.60;41.10
51815;DHT22;37874;53.158;6.766;2023-06-05T11:15:09;23.80;41.40
51815;DHT22;37874;53.158;6.766;2023-06-05T11:17:46;23.70;41.40
51815;DHT22;37874;53.158;6.766;2023-06-05T11:27:48;23.90;41.50
51815;DHT22;37874;53.158;6.766;2023-06-05T11:30:25;23.80;41.50
51815;DHT22;37874;53.158;6.766;2023-06-05T11:32:54;23.90;41.90
51815;DHT22;37874;53.158;6.766;2023-06-05T11:35:25;24.00;41.80
51815;DHT22;37874;53.158;6.766;2023-06-05T11:40:32;24.20;41.30
51815;DHT22;37874;53.158;6.766;2023-06-05T11:43:05;24.40;41.50
51815;DHT22;37874;53.158;6.766;2023-06-05T11:45:36;24.30;41.30
51815;DHT22;37874;53.158;6.766;2023-06-05T11:48:10;24.30;41.30
51815;DHT22;37874;53.158;6.766;2023-06-05T11:50:55;24.40;41.30
51815;DHT22;37874;53.158;6.766;2023-06-05T11:53:21;24.50;41.40
51815;DHT22;37874;53.158;6.766;2023-06-05T11:55:47;24.50;41.40
51815;DHT22;37874;53.158;6.766;2023-06-05T11:58:25;24.50;41.40
51815;DHT22;37874;53.158;6.766;2023-06-05T12:01:02;24.50;41.50
51815;DHT22;37874;53.158;6.766;2023-06-05T12:03:28;24.50;41.50
51815;DHT22;37874;53.158;6.766;2023-06-05T12:05:55;24.60;41.40
51815;DHT22;37874;53.158;6.766;2023-06-05T12:08:25;24.60;41.00
51815;DHT22;37874;53.158;6.766;2023-06-05T12:10:51;24.60;40.90
51815;DHT22;37874;53.158;6.766;2023-06-05T12:13:18;24.60;41.30
51815;DHT22;37874;53.158;6.766;2023-06-05T12:15:56;24.60;41.00
51815;DHT22;37874;53.158;6.766;2023-06-05T12:18:33;24.70;41.10
51815;DHT22;37874;53.158;6.766;2023-06-05T12:21:02;24.80;40.70
51815;DHT22;37874;53.158;6.766;2023-06-05T12:23:29;24.80;40.20
51815;DHT22;37874;53.158;6.766;2023-06-05T12:26:02;24.80;40.50
51815;DHT22;37874;53.158;6.766;2023-06-05T12:28:29;24.90;39.50
51815;DHT22;37874;53.158;6.766;2023-06-05T12:30:55;25.00;39.40
51815;DHT22;37874;53.158;6.766;2023-06-05T12:33:22;25.20;39.30
51815;DHT22;37874;53.158;6.766;2023-06-05T12:36:02;25.50;39.40
51815;DHT22;37874;53.158;6.766;2023-06-05T12:38:28;25.80;38.70
51815;DHT22;37874;53.158;6.766;2023-06-05T12:40:54;26.00;38.40
51815;DHT22;37874;53.158;6.766;2023-06-05T12:43:19;26.10;37.90
51815;DHT22;37874;53.158;6.766;2023-06-05T12:45:45;26.20;38.00
51815;DHT22;37874;53.158;6.766;2023-06-05T12:48:11;26.40;37.60
51815;DHT22;37874;53.158;6.766;2023-06-05T12:50:38;26.50;37.80
51815;DHT22;37874;53.158;6.766;2023-06-05T12:53:06;26.60;37.60
51815;DHT22;37874;53.158;6.766;2023-06-05T12:55:32;26.60;37.30
51815;DHT22;37874;53.158;6.766;2023-06-05T12:57:58;26.70;37.20
51815;DHT22;37874;53.158;6.766;2023-06-05T13:00:23;26.90;37.20
51815;DHT22;37874;53.158;6.766;2023-06-05T13:02:49;26.90;37.00
51815;DHT22;37874;53.158;6.766;2023-06-05T13:05:15;27.10;36.60
51815;DHT22;37874;53.158;6.766;2023-06-05T13:07:41;27.10;36.40
51815;DHT22;37874;53.158;6.766;2023-06-05T13:10:08;27.20;36.40
51815;DHT22;37874;53.158;6.766;2023-06-05T13:12:34;27.30;36.30
51815;DHT22;37874;53.158;6.766;2023-06-05T13:14:59;27.30;36.40
51815;DHT22;37874;53.158;6.766;2023-06-05T13:17:27;27.40;36.40
51815;DHT22;37874;53.158;6.766;2023-06-05T13:19:53;27.50;36.10
51815;DHT22;37874;53.158;6.766;2023-06-05T13:22:18;27.50;36.00
51815;DHT22;37874;53.158;6.766;2023-06-05T13:24:44;27.60;35.90
51815;DHT22;37874;53.158;6.766;2023-06-05T13:27:11;27.60;35.90
51815;DHT22;37874;53.158;6.766;2023-06-05T13:29:37;27.60;36.00
51815;DHT22;37874;53.158;6.766;2023-06-05T13:32:03;27.60;36.20
51815;DHT22;37874;53.158;6.766;2023-06-05T13:34:28;27.60;36.10
51815;DHT22;37874;53.158;6.766;2023-06-05T13:36:54;27.60;36.00
51815;DHT22;37874;53.158;6.766;2023-06-05T13:39:19;27.60;36.10
51815;DHT22;37874;53.158;6.766;2023-06-05T13:41:45;27.70;35.90
51815;DHT22;37874;53.158;6.766;2023-06-05T13:44:10;27.70;35.90
51815;DHT22;37874;53.158;6.766;2023-06-05T13:46:36;27.80;35.60
51815;DHT22;37874;53.158;6.766;2023-06-05T13:49:01;27.80;35.90
51815;DHT22;37874;53.158;6.766;2023-06-05T13:51:27;27.80;35.20
51815;DHT22;37874;53.158;6.766;2023-06-05T13:53:53;27.70;35.70
51815;DHT22;37874;53.158;6.766;2023-06-05T13:56:22;27.70;35.40
51815;DHT22;37874;53.158;6.766;2023-06-05T13:58:48;27.60;35.70
51815;DHT22;37874;53.158;6.766;2023-06-05T14:01:13;27.70;35.90
51815;DHT22;37874;53.158;6.766;2023-06-05T14:03:39;27.80;35.70
51815;DHT22;37874;53.158;6.766;2023-06-05T14:06:05;27.80;35.90
51815;DHT22;37874;53.158;6.766;2023-06-05T14:08:31;27.90;35.50
51815;DHT22;37874;53.158;6.766;2023-06-05T14:10:58;27.90;36.00
51815;DHT22;37874;53.158;6.766;2023-06-05T14:13:24;27.90;36.20
51815;DHT22;37874;53.158;6.766;2023-06-05T14:15:49;28.00;35.90
51815;DHT22;37874;53.158;6.766;2023-06-05T14:18:15;28.00;36.10
51815;DHT22;37874;53.158;6.766;2023-06-05T14:20:41;28.10;36.10
51815;DHT22;37874;53.158;6.766;2023-06-05T14:23:07;28.00;35.60
51815;DHT22;37874;53.158;6.766;2023-06-05T14:25:32;28.10;35.60
51815;DHT22;37874;53.158;6.766;2023-06-05T14:28:01;28.20;35.60
51815;DHT22;37874;53.158;6.766;2023-06-05T14:30:26;28.20;35.20
51815;DHT22;37874;53.158;6.766;2023-06-05T14:32:52;28.20;35.10
51815;DHT22;37874;53.158;6.766;2023-06-05T14:35:18;28.20;35.30
51815;DHT22;37874;53.158;6.766;2023-06-05T14:37:45;28.30;35.00
51815;DHT22;37874;53.158;6.766;2023-06-05T14:40:11;28.30;35.10
51815;DHT22;37874;53.158;6.766;2023-06-05T14:42:38;28.30;35.20
51815;DHT22;37874;53.158;6.766;2023-06-05T14:45:04;28.30;34.80
51815;DHT22;37874;53.158;6.766;2023-06-05T14:47:30;28.30;34.80
51815;DHT22;37874;53.158;6.766;2023-06-05T14:49:56;28.20;35.30
51815;DHT22;37874;53.158;6.766;2023-06-05T14:52:21;28.30;35.20
51815;DHT22;37874;53.158;6.766;2023-06-05T14:54:47;28.30;35.40
51815;DHT22;37874;53.158;6.766;2023-06-05T14:57:12;28.30;35.10
51815;DHT22;37874;53.158;6.766;2023-06-05T14:59:38;28.30;34.90
51815;DHT22;37874;53.158;6.766;2023-06-05T15:02:04;28.30;35.20
51815;DHT22;37874;53.158;6.766;2023-06-05T15:04:30;28.30;34.90
51815;DHT22;37874;53.158;6.766;2023-06-05T15:06:56;28.30;34.90
51815;DHT22;37874;53.158;6.766;2023-06-05T15:09:22;28.30;35.30
51815;DHT22;37874;53.158;6.766;2023-06-05T15:11:48;28.20;34.70
51815;DHT22;37874;53.158;6.766;2023-06-05T15:14:15;28.20;34.90
51815;DHT22;37874;53.158;6.766;2023-06-05T15:16:41;28.10;35.30
51815;DHT22;37874;53.158;6.766;2023-06-05T15:19:07;28.10;35.30
51815;DHT22;37874;53.158;6.766;2023-06-05T15:21:32;28.10;35.20
51815;DHT22;37874;53.158;6.766;2023-06-05T15:23:58;28.10;35.50
51815;DHT22;37874;53.158;6.766;2023-06-05T15:26:23;28.10;35.10
51815;DHT22;37874;53.158;6.766;2023-06-05T15:28:49;28.10;35.20
51815;DHT22;37874;53.158;6.766;2023-06-05T15:31:15;28.00;35.40
51815;DHT22;37874;53.158;6.766;2023-06-05T15:33:40;28.00;35.30
51815;DHT22;37874;53.158;6.766;2023-06-05T15:36:06;27.90;35.10
51815;DHT22;37874;53.158;6.766;2023-06-05T15:38:32;28.00;35.50
51815;DHT22;37874;53.158;6.766;2023-06-05T15:40:58;28.00;35.40
51815;DHT22;37874;53.158;6.766;2023-06-05T15:43:24;27.90;35.00
51815;DHT22;37874;53.158;6.766;2023-06-05T15:45:50;27.90;35.30
51815;DHT22;37874;53.158;6.766;2023-06-05T15:48:18;27.80;35.40
51815;DHT22;37874;53.158;6.766;2023-06-05T15:50:44;27.90;35.20
51815;DHT22;37874;53.158;6.766;2023-06-05T15:53:10;27.80;35.60
51815;DHT22;37874;53.158;6.766;2023-06-05T15:55:36;27.90;35.70
51815;DHT22;37874;53.158;6.766;2023-06-05T15:58:04;27.70;35.80
51815;DHT22;37874;53.158;6.766;2023-06-05T16:00:30;27.70;35.60
51815;DHT22;37874;53.158;6.766;2023-06-05T16:02:55;27.60;35.50
51815;DHT22;37874;53.158;6.766;2023-06-05T16:05:22;27.50;35.60
51815;DHT22;37874;53.158;6.766;2023-06-05T16:07:48;27.40;36.30
51815;DHT22;37874;53.158;6.766;2023-06-05T16:10:15;27.50;36.60
51815;DHT22;37874;53.158;6.766;2023-06-05T16:12:40;27.50;36.30
51815;DHT22;37874;53.158;6.766;2023-06-05T16:15:07;27.50;36.60
51815;DHT22;37874;53.158;6.766;2023-06-05T16:17:32;27.50;36.60